sensor_id;sensor_type;location;lat;lon;timestamp;pressure;altitude;pressure_sealevel;temperature;humidity
21644;BME280;10983;51.982;9.226;2024-03-17T00:02:06;100737.69;;;2.57;100.00
21644;BME280;10983;51.982;9.226;2024-03-17T00:04:33;100740.63;;;2.62;100.00
21644;BME280;10983;51.982;9.226;2024-03-17T00:07:00;100742.25;;;2.63;100.00
21644;BME280;10983;51.982;9.226;2024-03-17T00:09:27;100743.06;;;2.64;100.00
21644;BME280;10983;51.982;9.226;2024-03-17T00:11:53;100734.72;;;2.52;100.00
21644;BME280;10983;51.982;9.226;2024-03-17T00:14:20;100733.41;;;2.48;100.00
21644;BME280;10983;51.982;9.226;2024-03-17T00:16:47;100739.47;;;2.57;100.00
21644;BME280;10983;51.982;9.226;2024-03-17T00:19:14;100742.59;;;2.52;100.00
21644;BME280;10983;51.982;9.226;2024-03-17T00:21:40;100742.41;;;2.46;100.00
21644;BME280;10983;51.982;9.226;2024-03-17T00:24:07;100748.97;;;2.34;100.00
21644;BME280;10983;51.982;9.226;2024-03-17T00:26:35;100744.22;;;2.37;100.00
21644;BME280;10983;51.982;9.226;2024-03-17T00:29:01;100740.44;;;2.56;100.00
21644;BME280;10983;51.982;9.226;2024-03-17T00:31:28;100740.44;;;2.56;100.00
21644;BME280;10983;51.982;9.226;2024-03-17T00:33:54;100748.47;;;2.54;100.00
21644;BME280;10983;51.982;9.226;2024-03-17T00:36:20;100749.94;;;2.41;100.00
21644;BME280;10983;51.982;9.226;2024-03-17T00:38:47;100752.25;;;2.28;100.00
21644;BME280;10983;51.982;9.226;2024-03-17T00:41:15;100752.38;;;2.11;100.00
21644;BME280;10983;51.982;9.226;2024-03-17T00:43:41;100750.50;;;1.95;100.00
21644;BME280;10983;51.982;9.226;2024-03-17T00:46:07;100737.63;;;1.68;100.00
21644;BME280;10983;51.982;9.226;2024-03-17T00:48:33;100739.28;;;1.69;100.00
21644;BME280;10983;51.982;9.226;2024-03-17T00:50:59;100742.66;;;1.54;100.00
21644;BME280;10983;51.982;9.226;2024-03-17T00:53:25;100733.16;;;1.61;100.00
21644;BME280;10983;51.982;9.226;2024-03-17T00:55:52;100731.56;;;1.60;100.00
21644;BME280;10983;51.982;9.226;2024-03-17T00:58:20;100729.88;;;1.51;100.00
21644;BME280;10983;51.982;9.226;2024-03-17T01:00:46;100726.81;;;1.30;100.00
21644;BME280;10983;51.982;9.226;2024-03-17T01:03:13;100729.19;;;1.41;100.00
21644;BME280;10983;51.982;9.226;2024-03-17T01:05:40;100733.00;;;1.55;100.00
21644;BME280;10983;51.982;9.226;2024-03-17T01:08:07;100731.81;;;1.49;100.00
21644;BME280;10983;51.982;9.226;2024-03-17T01:10:37;100725.91;;;1.47;100.00
21644;BME280;10983;51.982;9.226;2024-03-17T01:13:03;100725.75;;;1.49;100.00
21644;BME280;10983;51.982;9.226;2024-03-17T01:15:31;100726.28;;;1.52;100.00
21644;BME280;10983;51.982;9.226;2024-03-17T01:17:56;100720.97;;;1.36;100.00
21644;BME280;10983;51.982;9.226;2024-03-17T01:20:25;100716.66;;;1.27;100.00
21644;BME280;10983;51.982;9.226;2024-03-17T01:22:52;100716.16;;;1.24;100.00
21644;BME280;10983;51.982;9.226;2024-03-17T01:25:19;100707.13;;;1.26;100.00
21644;BME280;10983;51.982;9.226;2024-03-17T01:27:45;100713.66;;;1.22;100.00
21644;BME280;10983;51.982;9.226;2024-03-17T01:30:12;100704.69;;;1.25;100.00
21644;BME280;10983;51.982;9.226;2024-03-17T01:32:39;100704.53;;;1.01;100.00
21644;BME280;10983;51.982;9.226;2024-03-17T01:35:06;100697.72;;;1.08;100.00
21644;BME280;10983;51.982;9.226;2024-03-17T01:37:31;100706.88;;;1.04;100.00
21644;BME280;10983;51.982;9.226;2024-03-17T01:39:58;100710.16;;;1.06;100.00
21644;BME280;10983;51.982;9.226;2024-03-17T01:42:24;100713.97;;;1.19;100.00
21644;BME280;10983;51.982;9.226;2024-03-17T01:44:50;100706.81;;;1.21;100.00
21644;BME280;10983;51.982;9.226;2024-03-17T01:47:16;100701.81;;;1.10;100.00
21644;BME280;10983;51.982;9.226;2024-03-17T01:49:45;100706.25;;;1.10;100.00
21644;BME280;10983;51.982;9.226;2024-03-17T01:52:11;100701.16;;;1.09;100.00
21644;BME280;10983;51.982;9.226;2024-03-17T01:54:38;100709.06;;;1.16;100.00
21644;BME280;10983;51.982;9.226;2024-03-17T01:57:04;100713.34;;;1.17;100.00
21644;BME280;10983;51.982;9.226;2024-03-17T01:59:30;100709.59;;;1.20;100.00
21644;BME280;10983;51.982;9.226;2024-03-17T02:01:56;100707.97;;;1.27;100.00
21644;BME280;10983;51.982;9.226;2024-03-17T02:04:24;100707.97;;;1.27;100.00
21644;BME280;10983;51.982;9.226;2024-03-17T02:06:52;100708.13;;;1.25;100.00
21644;BME280;10983;51.982;9.226;2024-03-17T02:09:18;100701.56;;;1.21;100.00
21644;BME280;10983;51.982;9.226;2024-03-17T02:11:46;100703.91;;;1.32;100.00
21644;BME280;10983;51.982;9.226;2024-03-17T02:14:13;100705.19;;;1.28;100.00
21644;BME280;10983;51.982;9.226;2024-03-17T02:16:41;100695.69;;;1.27;100.00
21644;BME280;10983;51.982;9.226;2024-03-17T02:19:07;100707.66;;;1.30;100.00
21644;BME280;10983;51.982;9.226;2024-03-17T02:21:34;100703.38;;;1.29;100.00
21644;BME280;10983;51.982;9.226;2024-03-17T02:24:01;100699.97;;;1.28;100.00
21644;BME280;10983;51.982;9.226;2024-03-17T02:26:28;100692.09;;;1.28;100.00
21644;BME280;10983;51.982;9.226;2024-03-17T02:28:54;100690.75;;;1.16;100.00
21644;BME280;10983;51.982;9.226;2024-03-17T02:31:20;100694.69;;;1.20;100.00
21644;BME280;10983;51.982;9.226;2024-03-17T02:33:47;100688.16;;;1.24;100.00
21644;BME280;10983;51.982;9.226;2024-03-17T02:36:14;100694.88;;;1.27;100.00
21644;BME280;10983;51.982;9.226;2024-03-17T02:38:41;100692.44;;;1.25;100.00
21644;BME280;10983;51.982;9.226;2024-03-17T02:41:43;100699.44;;;1.25;100.00
21644;BME280;10983;51.982;9.226;2024-03-17T02:44:11;100695.56;;;1.04;100.00
21644;BME280;10983;51.982;9.226;2024-03-17T02:46:40;100695.47;;;0.88;100.00
21644;BME280;10983;51.982;9.226;2024-03-17T02:49:08;100700.59;;;0.72;100.00
21644;BME280;10983;51.982;9.226;2024-03-17T02:51:39;100705.56;;;0.57;100.00
21644;BME280;10983;51.982;9.226;2024-03-17T02:54:08;100699.22;;;0.60;100.00
21644;BME280;10983;51.982;9.226;2024-03-17T02:56:34;100699.44;;;0.49;100.00
21644;BME280;10983;51.982;9.226;2024-03-17T02:59:03;100700.94;;;0.52;100.00
21644;BME280;10983;51.982;9.226;2024-03-17T03:01:32;100707.56;;;0.63;100.00
21644;BME280;10983;51.982;9.226;2024-03-17T03:03:58;100698.59;;;0.66;100.00
21644;BME280;10983;51.982;9.226;2024-03-17T03:06:25;100697.25;;;0.62;100.00
21644;BME280;10983;51.982;9.226;2024-03-17T03:08:51;100701.41;;;0.72;100.00
21644;BME280;10983;51.982;9.226;2024-03-17T03:11:18;100694.75;;;0.78;100.00
21644;BME280;10983;51.982;9.226;2024-03-17T03:13:44;100701.59;;;0.71;100.00
21644;BME280;10983;51.982;9.226;2024-03-17T03:16:14;100698.06;;;0.62;100.00
21644;BME280;10983;51.982;9.226;2024-03-17T03:18:41;100704.38;;;0.52;100.00
21644;BME280;10983;51.982;9.226;2024-03-17T03:21:10;100698.53;;;0.58;100.00
21644;BME280;10983;51.982;9.226;2024-03-17T03:23:38;100696.16;;;0.47;100.00
21644;BME280;10983;51.982;9.226;2024-03-17T03:26:05;100695.63;;;0.44;100.00
21644;BME280;10983;51.982;9.226;2024-03-17T03:28:35;100708.78;;;0.52;100.00
21644;BME280;10983;51.982;9.226;2024-03-17T03:31:02;100704.66;;;0.49;100.00
21644;BME280;10983;51.982;9.226;2024-03-17T03:33:29;100707.13;;;0.33;100.00
21644;BME280;10983;51.982;9.226;2024-03-17T03:35:56;100701.63;;;0.36;100.00
21644;BME280;10983;51.982;9.226;2024-03-17T03:38:23;100706.09;;;0.44;100.00
21644;BME280;10983;51.982;9.226;2024-03-17T03:40:50;100715.06;;;0.41;100.00
21644;BME280;10983;51.982;9.226;2024-03-17T03:43:17;100710.44;;;0.35;100.00
21644;BME280;10983;51.982;9.226;2024-03-17T03:45:44;100714.41;;;0.39;100.00
21644;BME280;10983;51.982;9.226;2024-03-17T03:48:11;100711.47;;;0.42;100.00
21644;BME280;10983;51.982;9.226;2024-03-17T03:50:40;100710.59;;;0.34;100.00
21644;BME280;10983;51.982;9.226;2024-03-17T03:53:06;100701.78;;;0.17;100.00
21644;BME280;10983;51.982;9.226;2024-03-17T03:55:33;100715.06;;;0.24;100.00
21644;BME280;10983;51.982;9.226;2024-03-17T03:57:59;100710.38;;;0.27;100.00
21644;BME280;10983;51.982;9.226;2024-03-17T04:00:26;100714.97;;;0.33;100.00
21644;BME280;10983;51.982;9.226;2024-03-17T04:02:56;100711.09;;;0.37;100.00
21644;BME280;10983;51.982;9.226;2024-03-17T04:05:23;100716.78;;;0.33;100.00
21644;BME280;10983;51.982;9.226;2024-03-17T04:07:52;100718.94;;;0.37;100.00
21644;BME280;10983;51.982;9.226;2024-03-17T04:10:21;100713.50;;;0.48;100.00
21644;BME280;10983;51.982;9.226;2024-03-17T04:12:49;100718.50;;;0.59;100.00
21644;BME280;10983;51.982;9.226;2024-03-17T04:15:16;100725.72;;;0.65;100.00
21644;BME280;10983;51.982;9.226;2024-03-17T04:17:42;100727.16;;;0.59;100.00
21644;BME280;10983;51.982;9.226;2024-03-17T04:20:10;100729.28;;;0.39;100.00
21644;BME280;10983;51.982;9.226;2024-03-17T04:22:39;100733.66;;;0.21;100.00
21644;BME280;10983;51.982;9.226;2024-03-17T04:25:07;100735.38;;;0.12;100.00
21644;BME280;10983;51.982;9.226;2024-03-17T04:27:34;100732.78;;;0.12;100.00
21644;BME280;10983;51.982;9.226;2024-03-17T04:30:02;100729.47;;;0.10;100.00
21644;BME280;10983;51.982;9.226;2024-03-17T04:32:31;100723.72;;;-0.10;100.00
21644;BME280;10983;51.982;9.226;2024-03-17T04:34:58;100735.53;;;-0.06;100.00
21644;BME280;10983;51.982;9.226;2024-03-17T04:37:24;100734.44;;;-0.13;100.00
21644;BME280;10983;51.982;9.226;2024-03-17T04:39:52;100737.44;;;-0.08;100.00
21644;BME280;10983;51.982;9.226;2024-03-17T04:42:24;100735.66;;;-0.08;100.00
21644;BME280;10983;51.982;9.226;2024-03-17T04:44:51;100740.44;;;-0.03;100.00
21644;BME280;10983;51.982;9.226;2024-03-17T04:47:18;100745.19;;;-0.16;100.00
21644;BME280;10983;51.982;9.226;2024-03-17T04:49:45;100746.91;;;-0.25;100.00
21644;BME280;10983;51.982;9.226;2024-03-17T04:52:12;100742.28;;;-0.40;100.00
21644;BME280;10983;51.982;9.226;2024-03-17T04:54:39;100753.09;;;-0.26;100.00
21644;BME280;10983;51.982;9.226;2024-03-17T04:57:08;100737.06;;;-0.40;100.00
21644;BME280;10983;51.982;9.226;2024-03-17T04:59:36;100753.28;;;-0.37;100.00
21644;BME280;10983;51.982;9.226;2024-03-17T05:02:04;100752.06;;;-0.42;100.00
21644;BME280;10983;51.982;9.226;2024-03-17T05:04:30;100751.22;;;-0.33;100.00
21644;BME280;10983;51.982;9.226;2024-03-17T05:06:57;100760.66;;;-0.32;100.00
21644;BME280;10983;51.982;9.226;2024-03-17T05:09:23;100761.06;;;-0.27;100.00
21644;BME280;10983;51.982;9.226;2024-03-17T05:11:50;100760.78;;;-0.24;100.00
21644;BME280;10983;51.982;9.226;2024-03-17T05:14:18;100799.25;;;-0.17;100.00
21644;BME280;10983;51.982;9.226;2024-03-17T05:16:48;100803.97;;;-0.03;100.00
21644;BME280;10983;51.982;9.226;2024-03-17T05:19:15;100802.22;;;-0.02;100.00
21644;BME280;10983;51.982;9.226;2024-03-17T05:21:43;100816.69;;;-0.08;100.00
21644;BME280;10983;51.982;9.226;2024-03-17T05:24:12;100813.88;;;0.03;100.00
21644;BME280;10983;51.982;9.226;2024-03-17T05:26:39;100819.59;;;0.06;100.00
21644;BME280;10983;51.982;9.226;2024-03-17T05:29:05;100816.84;;;0.08;100.00
21644;BME280;10983;51.982;9.226;2024-03-17T05:31:32;100822.84;;;0.18;100.00
21644;BME280;10983;51.982;9.226;2024-03-17T05:34:00;100813.91;;;-0.06;100.00
21644;BME280;10983;51.982;9.226;2024-03-17T05:36:26;100821.81;;;-0.16;100.00
21644;BME280;10983;51.982;9.226;2024-03-17T05:38:58;100816.84;;;-0.19;100.00
21644;BME280;10983;51.982;9.226;2024-03-17T05:41:25;100824.53;;;-0.08;100.00
21644;BME280;10983;51.982;9.226;2024-03-17T05:43:54;100829.25;;;0.06;100.00
21644;BME280;10983;51.982;9.226;2024-03-17T05:46:24;100824.69;;;0.08;100.00
21644;BME280;10983;51.982;9.226;2024-03-17T05:48:51;100836.88;;;0.17;100.00
21644;BME280;10983;51.982;9.226;2024-03-17T05:51:21;100840.19;;;0.19;100.00
21644;BME280;10983;51.982;9.226;2024-03-17T05:53:52;100847.97;;;0.28;100.00
21644;BME280;10983;51.982;9.226;2024-03-17T05:56:18;100838.28;;;0.38;100.00
21644;BME280;10983;51.982;9.226;2024-03-17T05:58:45;100837.53;;;0.46;100.00
21644;BME280;10983;51.982;9.226;2024-03-17T06:01:12;100854.53;;;0.59;100.00
21644;BME280;10983;51.982;9.226;2024-03-17T06:03:38;100858.63;;;0.61;100.00
21644;BME280;10983;51.982;9.226;2024-03-17T06:06:06;100858.13;;;0.75;100.00
21644;BME280;10983;51.982;9.226;2024-03-17T06:08:36;100862.53;;;0.92;100.00
21644;BME280;10983;51.982;9.226;2024-03-17T06:11:05;100850.25;;;1.10;100.00
21644;BME280;10983;51.982;9.226;2024-03-17T06:13:32;100863.53;;;1.34;100.00
21644;BME280;10983;51.982;9.226;2024-03-17T06:15:58;100862.56;;;1.35;100.00
21644;BME280;10983;51.982;9.226;2024-03-17T06:18:27;100863.53;;;1.34;100.00
21644;BME280;10983;51.982;9.226;2024-03-17T06:20:54;100869.75;;;1.58;100.00
21644;BME280;10983;51.982;9.226;2024-03-17T06:23:23;100870.66;;;1.74;100.00
21644;BME280;10983;51.982;9.226;2024-03-17T06:25:51;100866.09;;;1.76;100.00
21644;BME280;10983;51.982;9.226;2024-03-17T06:28:19;100868.09;;;1.82;100.00
21644;BME280;10983;51.982;9.226;2024-03-17T06:30:55;100869.19;;;1.97;100.00
21644;BME280;10983;51.982;9.226;2024-03-17T06:33:26;100859.56;;;1.80;100.00
21644;BME280;10983;51.982;9.226;2024-03-17T06:35:55;100855.88;;;1.91;100.00
21644;BME280;10983;51.982;9.226;2024-03-17T06:38:22;100855.78;;;2.08;100.00
21644;BME280;10983;51.982;9.226;2024-03-17T06:40:49;100843.97;;;2.04;100.00
21644;BME280;10983;51.982;9.226;2024-03-17T06:43:19;100850.06;;;2.13;100.00
21644;BME280;10983;51.982;9.226;2024-03-17T06:45:56;100847.78;;;2.18;100.00
21644;BME280;10983;51.982;9.226;2024-03-17T06:48:24;100843.34;;;2.18;100.00
21644;BME280;10983;51.982;9.226;2024-03-17T06:50:51;100853.91;;;2.34;100.00
21644;BME280;10983;51.982;9.226;2024-03-17T06:53:19;100853.16;;;2.57;100.00
21644;BME280;10983;51.982;9.226;2024-03-17T06:55:52;100858.59;;;2.79;100.00
21644;BME280;10983;51.982;9.226;2024-03-17T06:58:21;100860.44;;;2.87;100.00
21644;BME280;10983;51.982;9.226;2024-03-17T07:00:52;100866.03;;;3.00;100.00
21644;BME280;10983;51.982;9.226;2024-03-17T07:03:19;100863.88;;;3.19;100.00
21644;BME280;10983;51.982;9.226;2024-03-17T07:05:51;100864.56;;;3.29;100.00
21644;BME280;10983;51.982;9.226;2024-03-17T07:08:17;100873.06;;;3.55;100.00
21644;BME280;10983;51.982;9.226;2024-03-17T07:10:54;100874.56;;;3.57;100.00
21644;BME280;10983;51.982;9.226;2024-03-17T07:13:23;100876.81;;;3.76;100.00
21644;BME280;10983;51.982;9.226;2024-03-17T07:15:49;100866.47;;;3.75;100.00
21644;BME280;10983;51.982;9.226;2024-03-17T07:18:16;100879.09;;;3.79;100.00
21644;BME280;10983;51.982;9.226;2024-03-17T07:20:42;100875.13;;;3.91;100.00
21644;BME280;10983;51.982;9.226;2024-03-17T07:23:09;100879.53;;;4.06;100.00
21644;BME280;10983;51.982;9.226;2024-03-17T07:25:36;100881.66;;;4.11;100.00
21644;BME280;10983;51.982;9.226;2024-03-17T07:28:03;100874.25;;;4.14;100.00
21644;BME280;10983;51.982;9.226;2024-03-17T07:30:32;100887.53;;;4.21;100.00
21644;BME280;10983;51.982;9.226;2024-03-17T07:32:59;100878.75;;;4.36;100.00
21644;BME280;10983;51.982;9.226;2024-03-17T07:35:28;100868.41;;;4.65;100.00
21644;BME280;10983;51.982;9.226;2024-03-17T07:37:54;100881.78;;;4.86;100.00
21644;BME280;10983;51.982;9.226;2024-03-17T07:40:21;100873.47;;;4.74;100.00
21644;BME280;10983;51.982;9.226;2024-03-17T07:42:54;100887.25;;;5.06;100.00
21644;BME280;10983;51.982;9.226;2024-03-17T07:45:20;100875.06;;;5.28;100.00
21644;BME280;10983;51.982;9.226;2024-03-17T07:47:50;100868.00;;;5.20;100.00
21644;BME280;10983;51.982;9.226;2024-03-17T07:50:16;100865.06;;;5.38;100.00
21644;BME280;10983;51.982;9.226;2024-03-17T07:52:43;100860.63;;;5.53;100.00
21644;BME280;10983;51.982;9.226;2024-03-17T07:55:11;100849.28;;;5.52;100.00
21644;BME280;10983;51.982;9.226;2024-03-17T07:57:38;100839.03;;;5.57;100.00
21644;BME280;10983;51.982;9.226;2024-03-17T08:00:06;100833.56;;;5.58;100.00
21644;BME280;10983;51.982;9.226;2024-03-17T08:02:41;100819.63;;;5.64;100.00
21644;BME280;10983;51.982;9.226;2024-03-17T08:05:09;100810.59;;;5.81;100.00
21644;BME280;10983;51.982;9.226;2024-03-17T08:07:36;100806.13;;;6.11;100.00
21644;BME280;10983;51.982;9.226;2024-03-17T08:10:03;100799.53;;;6.21;100.00
21644;BME280;10983;51.982;9.226;2024-03-17T08:12:30;100796.69;;;6.37;100.00
21644;BME280;10983;51.982;9.226;2024-03-17T08:14:56;100790.72;;;6.49;100.00
21644;BME280;10983;51.982;9.226;2024-03-17T08:17:25;100786.78;;;6.80;100.00
21644;BME280;10983;51.982;9.226;2024-03-17T08:19:53;100771.91;;;7.00;100.00
21644;BME280;10983;51.982;9.226;2024-03-17T08:22:20;100759.00;;;7.12;100.00
21644;BME280;10983;51.982;9.226;2024-03-17T08:24:47;100755.16;;;7.14;100.00
21644;BME280;10983;51.982;9.226;2024-03-17T08:27:14;100735.81;;;7.14;100.00
21644;BME280;10983;51.982;9.226;2024-03-17T08:29:40;100742.00;;;7.27;100.00
21644;BME280;10983;51.982;9.226;2024-03-17T08:32:07;100741.50;;;7.38;100.00
21644;BME280;10983;51.982;9.226;2024-03-17T08:34:33;100751.94;;;7.52;100.00
21644;BME280;10983;51.982;9.226;2024-03-17T08:37:00;100754.69;;;7.65;100.00
21644;BME280;10983;51.982;9.226;2024-03-17T08:39:28;100763.47;;;7.72;100.00
21644;BME280;10983;51.982;9.226;2024-03-17T08:41:54;100785.44;;;8.06;100.00
21644;BME280;10983;51.982;9.226;2024-03-17T08:44:21;100799.06;;;8.37;100.00
21644;BME280;10983;51.982;9.226;2024-03-17T08:46:49;100814.22;;;8.62;100.00
21644;BME280;10983;51.982;9.226;2024-03-17T08:49:15;100829.59;;;8.99;100.00
21644;BME280;10983;51.982;9.226;2024-03-17T08:51:42;100848.63;;;9.15;100.00
21644;BME280;10983;51.982;9.226;2024-03-17T08:54:08;100870.88;;;9.47;100.00
21644;BME280;10983;51.982;9.226;2024-03-17T08:56:36;100888.84;;;9.77;100.00
21644;BME280;10983;51.982;9.226;2024-03-17T08:59:04;100907.03;;;9.86;100.00
21644;BME280;10983;51.982;9.226;2024-03-17T09:01:30;100934.66;;;10.11;100.00
21644;BME280;10983;51.982;9.226;2024-03-17T09:03:57;100954.22;;;10.23;100.00
21644;BME280;10983;51.982;9.226;2024-03-17T09:06:26;100962.94;;;10.62;100.00
21644;BME280;10983;51.982;9.226;2024-03-17T09:08:55;100981.13;;;10.71;100.00
21644;BME280;10983;51.982;9.226;2024-03-17T09:11:21;100982.09;;;10.96;100.00
21644;BME280;10983;51.982;9.226;2024-03-17T09:13:52;100984.00;;;11.20;100.00
21644;BME280;10983;51.982;9.226;2024-03-17T09:16:18;100995.31;;;11.09;100.00
21644;BME280;10983;51.982;9.226;2024-03-17T09:18:47;100995.84;;;11.24;100.00
21644;BME280;10983;51.982;9.226;2024-03-17T09:21:14;101005.78;;;11.04;100.00
21644;BME280;10983;51.982;9.226;2024-03-17T09:23:43;101008.72;;;10.83;100.00
21644;BME280;10983;51.982;9.226;2024-03-17T09:26:10;101011.69;;;11.13;100.00
21644;BME280;10983;51.982;9.226;2024-03-17T09:28:38;101011.88;;;11.61;100.00
21644;BME280;10983;51.982;9.226;2024-03-17T09:31:06;101016.97;;;11.93;100.00
21644;BME280;10983;51.982;9.226;2024-03-17T09:33:34;101022.22;;;12.31;100.00
21644;BME280;10983;51.982;9.226;2024-03-17T09:36:02;101022.41;;;12.53;100.00
21644;BME280;10983;51.982;9.226;2024-03-17T09:38:29;101028.31;;;12.80;100.00
21644;BME280;10983;51.982;9.226;2024-03-17T09:40:56;101035.91;;;13.18;100.00
21644;BME280;10983;51.982;9.226;2024-03-17T09:43:26;101052.22;;;13.46;100.00
21644;BME280;10983;51.982;9.226;2024-03-17T09:45:54;101061.09;;;14.16;100.00
21644;BME280;10983;51.982;9.226;2024-03-17T09:48:24;101074.31;;;14.75;100.00
21644;BME280;10983;51.982;9.226;2024-03-17T09:50:54;101090.03;;;14.83;100.00
21644;BME280;10983;51.982;9.226;2024-03-17T09:53:23;101096.03;;;15.47;100.00
21644;BME280;10983;51.982;9.226;2024-03-17T09:55:50;101102.50;;;16.18;100.00
21644;BME280;10983;51.982;9.226;2024-03-17T09:58:17;101108.91;;;16.44;100.00
21644;BME280;10983;51.982;9.226;2024-03-17T10:00:44;101117.66;;;16.68;100.00
21644;BME280;10983;51.982;9.226;2024-03-17T10:03:12;101120.19;;;17.28;100.00
21644;BME280;10983;51.982;9.226;2024-03-17T10:06:02;101111.44;;;17.59;100.00
21644;BME280;10983;51.982;9.226;2024-03-17T10:08:30;101115.38;;;17.14;100.00
21644;BME280;10983;51.982;9.226;2024-03-17T10:10:59;101116.41;;;16.42;100.00
21644;BME280;10983;51.982;9.226;2024-03-17T10:13:26;101120.56;;;15.94;100.00
21644;BME280;10983;51.982;9.226;2024-03-17T10:15:52;101127.16;;;14.79;100.00
21644;BME280;10983;51.982;9.226;2024-03-17T10:18:22;101118.66;;;15.39;100.00
21644;BME280;10983;51.982;9.226;2024-03-17T10:20:49;101125.09;;;16.05;100.00
21644;BME280;10983;51.982;9.226;2024-03-17T10:23:21;101117.47;;;15.47;100.00
21644;BME280;10983;51.982;9.226;2024-03-17T10:25:48;101114.47;;;14.75;100.00
21644;BME280;10983;51.982;9.226;2024-03-17T10:28:18;101108.53;;;14.84;100.00
21644;BME280;10983;51.982;9.226;2024-03-17T10:30:57;101104.44;;;16.33;100.00
21644;BME280;10983;51.982;9.226;2024-03-17T10:33:24;101099.72;;;16.89;100.00
21644;BME280;10983;51.982;9.226;2024-03-17T10:35:58;101095.44;;;16.56;100.00
21644;BME280;10983;51.982;9.226;2024-03-17T10:38:26;101090.25;;;17.89;100.00
21644;BME280;10983;51.982;9.226;2024-03-17T10:40:54;101094.41;;;18.90;100.00
21644;BME280;10983;51.982;9.226;2024-03-17T10:43:20;101085.31;;;20.42;100.00
21644;BME280;10983;51.982;9.226;2024-03-17T10:45:52;101077.75;;;21.72;100.00
21644;BME280;10983;51.982;9.226;2024-03-17T10:48:20;101077.78;;;21.67;100.00
21644;BME280;10983;51.982;9.226;2024-03-17T10:50:50;101076.75;;;21.43;100.00
21644;BME280;10983;51.982;9.226;2024-03-17T10:53:20;101072.94;;;21.59;100.00
21644;BME280;10983;51.982;9.226;2024-03-17T10:56:02;101066.47;;;21.55;100.00
21644;BME280;10983;51.982;9.226;2024-03-17T10:58:34;101066.16;;;22.48;100.00
21644;BME280;10983;51.982;9.226;2024-03-17T11:01:03;101052.34;;;22.72;100.00
21644;BME280;10983;51.982;9.226;2024-03-17T11:03:31;101054.94;;;21.83;100.00
21644;BME280;10983;51.982;9.226;2024-03-17T11:05:58;101063.97;;;20.56;100.00
21644;BME280;10983;51.982;9.226;2024-03-17T11:08:26;101058.69;;;19.70;100.00
21644;BME280;10983;51.982;9.226;2024-03-17T11:10:54;101062.31;;;20.05;100.00
21644;BME280;10983;51.982;9.226;2024-03-17T11:13:26;101058.56;;;20.76;100.00
21644;BME280;10983;51.982;9.226;2024-03-17T11:15:56;101057.75;;;20.16;100.00
21644;BME280;10983;51.982;9.226;2024-03-17T11:18:37;101055.00;;;21.05;100.00
21644;BME280;10983;51.982;9.226;2024-03-17T11:21:20;101053.25;;;22.35;100.00
21644;BME280;10983;51.982;9.226;2024-03-17T11:24:01;101042.28;;;22.78;100.00
21644;BME280;10983;51.982;9.226;2024-03-17T11:26:34;101055.03;;;22.77;100.00
21644;BME280;10983;51.982;9.226;2024-03-17T11:29:03;101056.78;;;21.87;100.00
21644;BME280;10983;51.982;9.226;2024-03-17T11:31:34;101057.81;;;21.53;100.00
21644;BME280;10983;51.982;9.226;2024-03-17T11:34:04;101054.31;;;21.38;100.00
21644;BME280;10983;51.982;9.226;2024-03-17T11:36:35;101051.22;;;23.07;100.00
21644;BME280;10983;51.982;9.226;2024-03-17T11:39:03;101041.84;;;24.19;100.00
21644;BME280;10983;51.982;9.226;2024-03-17T11:41:42;101041.13;;;23.54;100.00
21644;BME280;10983;51.982;9.226;2024-03-17T11:44:24;101045.69;;;23.17;100.00
21644;BME280;10983;51.982;9.226;2024-03-17T11:46:53;101048.84;;;21.57;100.00
21644;BME280;10983;51.982;9.226;2024-03-17T11:49:22;101043.47;;;23.18;100.00
21644;BME280;10983;51.982;9.226;2024-03-17T11:51:53;101028.78;;;25.11;100.00
21644;BME280;10983;51.982;9.226;2024-03-17T11:54:20;101023.78;;;24.87;100.00
21644;BME280;10983;51.982;9.226;2024-03-17T11:56:51;101012.81;;;23.96;100.00
21644;BME280;10983;51.982;9.226;2024-03-17T11:59:17;101019.56;;;25.74;100.00
21644;BME280;10983;51.982;9.226;2024-03-17T12:01:45;101009.00;;;26.38;100.00
21644;BME280;10983;51.982;9.226;2024-03-17T12:04:13;101011.38;;;25.96;100.00
21644;BME280;10983;51.982;9.226;2024-03-17T12:06:43;100995.88;;;25.35;100.00
21644;BME280;10983;51.982;9.226;2024-03-17T12:09:11;100994.13;;;25.52;100.00
21644;BME280;10983;51.982;9.226;2024-03-17T12:11:44;101000.47;;;25.74;100.00
21644;BME280;10983;51.982;9.226;2024-03-17T12:14:15;100992.81;;;26.20;100.00
21644;BME280;10983;51.982;9.226;2024-03-17T12:16:49;100970.63;;;27.68;100.00
21644;BME280;10983;51.982;9.226;2024-03-17T12:19:15;100971.38;;;28.52;100.00
21644;BME280;10983;51.982;9.226;2024-03-17T12:21:48;100985.69;;;27.40;100.00
21644;BME280;10983;51.982;9.226;2024-03-17T12:24:18;100989.72;;;26.57;100.00
21644;BME280;10983;51.982;9.226;2024-03-17T12:26:45;100991.44;;;24.85;100.00
21644;BME280;10983;51.982;9.226;2024-03-17T12:29:25;100987.31;;;25.14;100.00
21644;BME280;10983;51.982;9.226;2024-03-17T12:31:53;100986.00;;;25.12;100.00
21644;BME280;10983;51.982;9.226;2024-03-17T12:34:21;100975.06;;;24.27;100.00
21644;BME280;10983;51.982;9.226;2024-03-17T12:36:47;100985.63;;;23.00;100.00
21644;BME280;10983;51.982;9.226;2024-03-17T12:39:19;100983.72;;;23.42;100.00
21644;BME280;10983;51.982;9.226;2024-03-17T12:41:45;100965.03;;;24.27;100.00
21644;BME280;10983;51.982;9.226;2024-03-17T12:44:24;100978.56;;;23.82;100.00
21644;BME280;10983;51.982;9.226;2024-03-17T12:46:54;100978.03;;;24.30;100.00
21644;BME280;10983;51.982;9.226;2024-03-17T12:49:21;100977.56;;;23.55;100.00
21644;BME280;10983;51.982;9.226;2024-03-17T12:51:46;100984.41;;;22.31;100.00